Time;durP1;ratioP1;P1;durP2;ratioP2;P2;SDS_P1;SDS_P2;PMS_P1;PMS_P2;Temp;Humidity;BMP_temperature;BMP_pressure;BME280_temperature;BME280_humidity;BME280_pressure;Samples;Min_cycle;Max_cycle;Signal;HPM_P1;HPM_P2
2023/04/02 00:00:08;;;;;;;8.25;3.17;;;2.80;99.90;;;;;;5032000;28;20045;-69
2023/04/02 00:02:34;;;;;;;8.73;2.70;;;2.80;99.90;;;;;;5031484;28;20022;-70
2023/04/02 00:05:29;;;;;;;8.52;3.10;;;2.80;99.90;;;;;;5032316;28;20124;-69
2023/04/02 00:07:58;;;;;;;10.00;2.97;;;2.80;99.90;;;;;;5032471;28;20087;-69
2023/04/02 00:10:48;;;;;;;7.43;3.15;;;2.70;99.90;;;;;;5032461;28;20018;-71
2023/04/02 00:13:16;;;;;;;7.45;2.78;;;2.70;99.90;;;;;;5031648;28;20018;-69
2023/04/02 00:15:47;;;;;;;6.55;2.75;;;2.60;99.90;;;;;;5032198;28;20069;-68
2023/04/02 00:18:16;;;;;;;8.90;2.97;;;2.60;99.90;;;;;;5031174;28;20017;-70
2023/04/02 00:20:47;;;;;;;12.63;3.30;;;2.60;99.90;;;;;;5031349;28;20084;-69
2023/04/02 00:23:14;;;;;;;12.25;2.83;;;2.50;99.90;;;;;;5032247;28;20026;-71
2023/04/02 00:25:44;;;;;;;8.65;2.60;;;2.50;99.90;;;;;;5030835;28;20041;-71
2023/04/02 00:28:15;;;;;;;8.15;3.10;;;2.50;99.90;;;;;;5033211;28;20384;-69
2023/04/02 00:30:50;;;;;;;9.55;3.28;;;2.40;99.90;;;;;;5035866;28;20036;-69
2023/04/02 00:33:19;;;;;;;9.05;2.80;;;2.50;99.90;;;;;;5035016;28;20037;-71
2023/04/02 00:35:46;;;;;;;10.77;2.72;;;2.40;99.90;;;;;;5036441;28;20025;-69
2023/04/02 00:38:24;;;;;;;8.73;2.65;;;2.40;99.90;;;;;;5036222;28;20025;-69
2023/04/02 00:40:52;;;;;;;7.93;2.78;;;2.40;99.90;;;;;;5036347;28;20022;-70
2023/04/02 00:43:17;;;;;;;10.15;2.55;;;2.40;99.90;;;;;;5036269;28;20029;-68
2023/04/02 00:45:49;;;;;;;9.25;3.22;;;2.30;99.90;;;;;;5035634;28;20116;-70
2023/04/02 00:48:30;;;;;;;11.75;3.05;;;2.30;99.90;;;;;;5034916;28;20417;-69
2023/04/02 00:51:00;;;;;;;7.93;2.97;;;2.30;99.90;;;;;;5036023;28;20030;-69
2023/04/02 00:53:30;;;;;;;6.38;2.60;;;2.30;99.90;;;;;;5035413;28;20049;-70
2023/04/02 00:55:57;;;;;;;10.93;2.60;;;2.20;99.90;;;;;;5035875;28;20030;-69
2023/04/02 00:58:32;;;;;;;10.18;2.40;;;2.20;99.90;;;;;;5035300;28;20049;-70
2023/04/02 01:00:59;;;;;;;7.57;2.53;;;2.30;99.90;;;;;;5034855;28;20043;-68
2023/04/02 01:03:33;;;;;;;13.52;2.40;;;2.30;99.90;;;;;;5035587;28;20014;-68
2023/04/02 01:06:09;;;;;;;6.60;2.65;;;2.20;99.90;;;;;;5035668;28;20042;-69
2023/04/02 01:08:49;;;;;;;11.93;2.78;;;2.20;99.90;;;;;;5035133;28;20527;-71
2023/04/02 01:11:21;;;;;;;8.32;2.08;;;2.20;99.90;;;;;;5035708;28;20044;-70
2023/04/02 01:14:11;;;;;;;11.45;2.55;;;2.20;99.90;;;;;;5035332;28;20025;-68
2023/04/02 01:17:01;;;;;;;10.70;2.30;;;2.20;99.90;;;;;;5035335;28;20029;-68
2023/04/02 01:19:57;;;;;;;10.50;2.40;;;2.10;99.90;;;;;;5035135;28;20026;-71
2023/04/02 01:22:56;;;;;;;11.02;2.20;;;2.10;99.90;;;;;;5035064;28;20030;-70
2023/04/02 01:25:42;;;;;;;5.80;2.35;;;2.10;99.90;;;;;;5034829;28;20033;-69
2023/04/02 01:28:32;;;;;;;6.07;2.03;;;2.10;99.90;;;;;;5034754;28;20026;-70
2023/04/02 01:31:00;;;;;;;10.43;2.83;;;2.10;99.90;;;;;;5033812;28;20039;-69
2023/04/02 01:33:33;;;;;;;9.95;2.72;;;2.00;99.90;;;;;;5035100;28;20057;-71
2023/04/02 01:36:41;;;;;;;14.15;2.65;;;2.00;99.90;;;;;;5034923;28;20025;-69
2023/04/02 01:39:22;;;;;;;7.00;2.05;;;1.90;99.90;;;;;;5033320;28;20030;-70
2023/04/02 01:42:01;;;;;;;10.88;2.58;;;1.90;99.90;;;;;;5034510;28;20033;-69
2023/04/02 01:44:36;;;;;;;8.90;2.10;;;1.90;99.90;;;;;;5034868;28;20030;-68
2023/04/02 01:47:07;;;;;;;7.75;1.95;;;1.90;99.90;;;;;;5034928;28;20845;-68
2023/04/02 01:49:33;;;;;;;12.40;2.38;;;1.80;99.90;;;;;;5034196;28;20029;-71
2023/04/02 01:51:59;;;;;;;9.20;1.92;;;1.90;99.90;;;;;;5034403;28;20018;-70
2023/04/02 01:54:27;;;;;;;7.50;2.33;;;1.90;99.90;;;;;;5034088;28;20061;-69
2023/04/02 01:56:56;;;;;;;7.03;2.10;;;1.80;99.90;;;;;;5034070;28;20014;-70
2023/04/02 01:59:22;;;;;;;10.48;1.75;;;1.80;99.90;;;;;;5032838;28;20022;-69
2023/04/02 02:02:00;;;;;;;7.93;2.05;;;1.80;99.90;;;;;;5034419;28;20029;-69
2023/04/02 02:04:26;;;;;;;7.68;2.15;;;1.80;99.90;;;;;;5034786;28;20042;-69
2023/04/02 02:06:52;;;;;;;15.68;2.47;;;1.80;99.90;;;;;;5034633;28;20061;-72
2023/04/02 02:09:27;;;;;;;9.57;2.10;;;1.80;99.90;;;;;;5034242;28;20443;-70
2023/04/02 02:11:53;;;;;;;9.95;1.85;;;1.80;99.90;;;;;;5034076;28;20028;-68
2023/04/02 02:14:21;;;;;;;6.72;2.03;;;1.70;99.90;;;;;;5034302;28;20053;-71
2023/04/02 02:16:47;;;;;;;8.55;2.20;;;1.80;99.90;;;;;;5034468;28;20093;-69
2023/04/02 02:19:24;;;;;;;9.88;2.13;;;1.70;99.90;;;;;;5032293;28;20026;-69
2023/04/02 02:21:56;;;;;;;6.78;1.70;;;1.70;99.90;;;;;;5033053;28;20026;-71
2023/04/02 02:24:26;;;;;;;7.15;1.50;;;1.70;99.90;;;;;;5034022;28;20042;-69
2023/04/02 02:27:23;;;;;;;10.48;2.13;;;1.70;99.90;;;;;;5032917;28;20040;-69
2023/04/02 02:30:09;;;;;;;12.68;2.03;;;1.70;99.90;;;;;;5032590;28;20022;-70
2023/04/02 02:32:41;;;;;;;7.95;1.92;;;1.80;99.90;;;;;;5034031;28;20078;-69
2023/04/02 02:35:11;;;;;;;5.15;1.75;;;1.70;99.90;;;;;;5033822;28;20053;-68
2023/04/02 02:37:42;;;;;;;7.75;2.30;;;1.70;99.90;;;;;;5033197;28;20022;-68
2023/04/02 02:40:17;;;;;;;8.30;2.00;;;1.60;99.90;;;;;;5034132;28;20040;-69
2023/04/02 02:43:03;;;;;;;8.90;1.98;;;1.70;99.90;;;;;;5033489;28;20034;-70
2023/04/02 02:45:36;;;;;;;9.45;2.10;;;1.70;99.90;;;;;;5032066;28;20103;-70
2023/04/02 02:48:04;;;;;;;7.53;1.77;;;1.70;99.90;;;;;;5033865;28;20035;-70
2023/04/02 02:50:31;;;;;;;5.65;1.60;;;1.60;99.90;;;;;;5032822;28;20026;-72
2023/04/02 02:53:01;;;;;;;6.75;1.70;;;1.70;99.90;;;;;;5033314;28;20449;-68
2023/04/02 02:55:35;;;;;;;9.85;1.77;;;1.60;99.90;;;;;;5032675;28;20057;-69
2023/04/02 02:58:26;;;;;;;5.45;1.90;;;1.60;99.90;;;;;;5032165;28;20481;-69
2023/04/02 03:00:53;;;;;;;14.52;2.08;;;1.60;99.90;;;;;;5027621;28;20479;-69
2023/04/02 03:03:23;;;;;;;9.70;1.85;;;1.60;99.90;;;;;;5033013;28;20030;-69
2023/04/02 03:05:55;;;;;;;6.90;1.80;;;1.60;99.90;;;;;;5033566;28;20038;-70
2023/04/02 03:08:29;;;;;;;12.18;2.22;;;1.60;99.90;;;;;;5032974;28;20084;-68
2023/04/02 03:10:59;;;;;;;;;;;1.60;99.90;;;;;;5033446;28;20068;-70
2023/04/02 03:13:28;;;;;;;5.22;1.80;;;1.60;99.90;;;;;;5033326;28;20384;-69
2023/04/02 03:15:57;;;;;;;7.65;1.80;;;1.50;99.90;;;;;;5033264;28;20018;-69
2023/04/02 03:18:51;;;;;;;11.95;2.10;;;1.60;99.90;;;;;;5033313;28;20025;-69
2023/04/02 03:21:47;;;;;;;6.00;1.70;;;1.50;99.90;;;;;;5033337;28;20087;-70
2023/04/02 03:24:31;;;;;;;13.63;2.25;;;1.50;99.90;;;;;;5032819;28;20042;-69
2023/04/02 03:27:24;;;;;;;5.90;1.60;;;1.50;99.90;;;;;;5032743;28;20033;-68
2023/04/02 03:30:02;;;;;;;6.72;1.48;;;1.50;99.90;;;;;;5032844;28;20116;-69
2023/04/02 03:32:33;;;;;;;10.18;1.52;;;1.50;99.90;;;;;;5033125;28;20079;-71
2023/04/02 03:35:16;;;;;;;7.20;1.95;;;1.50;99.90;;;;;;5032561;28;20032;-71
2023/04/02 03:37:57;;;;;;;7.40;1.58;;;1.40;99.90;;;;;;5031976;28;20037;-72
2023/04/02 03:40:47;;;;;;;5.90;2.00;;;1.40;99.90;;;;;;5032287;28;20026;-69
2023/04/02 03:43:24;;;;;;;13.98;2.00;;;1.40;99.90;;;;;;5032338;28;20098;-70
2023/04/02 03:45:56;;;;;;;6.40;1.73;;;1.40;99.90;;;;;;5032424;28;20034;-70
2023/04/02 03:48:39;;;;;;;10.23;2.10;;;1.40;99.90;;;;;;5032236;28;20104;-72
2023/04/02 03:51:15;;;;;;;5.60;1.67;;;1.40;99.90;;;;;;5032869;28;20118;-69
2023/04/02 03:53:42;;;;;;;5.97;1.63;;;1.40;99.90;;;;;;5032597;28;20022;-69
2023/04/02 03:56:16;;;;;;;8.65;1.85;;;1.40;99.90;;;;;;5032426;28;20018;-68
2023/04/02 03:58:48;;;;;;;11.43;2.00;;;1.40;99.90;;;;;;5031032;28;20021;-69
2023/04/02 04:01:30;;;;;;;5.65;1.48;;;1.40;99.90;;;;;;5032395;28;20025;-68
2023/04/02 04:04:04;;;;;;;8.70;1.63;;;1.40;99.90;;;;;;5031954;28;20037;-72
2023/04/02 04:06:32;;;;;;;9.18;1.77;;;1.40;99.90;;;;;;5030758;28;20044;-71
2023/04/02 04:09:18;;;;;;;9.98;1.60;;;1.40;99.90;;;;;;5029921;28;20049;-71
2023/04/02 04:11:46;;;;;;;8.98;1.50;;;1.40;99.90;;;;;;5031473;28;20044;-71
2023/04/02 04:14:19;;;;;;;3.63;1.40;;;1.40;99.90;;;;;;5032062;28;20530;-71
2023/04/02 04:16:54;;;;;;;8.48;1.75;;;1.40;99.90;;;;;;5032337;28;20029;-69
2023/04/02 04:19:31;;;;;;;6.70;1.65;;;1.40;99.90;;;;;;5031728;28;20025;-70
2023/04/02 04:22:31;;;;;;;3.78;1.02;;;1.40;99.90;;;;;;5031663;28;20132;-68
2023/04/02 04:24:59;;;;;;;7.35;1.60;;;1.40;99.90;;;;;;5009751;28;20137;-70
2023/04/02 04:27:52;;;;;;;7.38;1.65;;;1.40;99.90;;;;;;5031829;28;20033;-70
2023/04/02 04:30:41;;;;;;;7.68;1.85;;;1.40;99.90;;;;;;5031157;28;20038;-70
2023/04/02 04:33:27;;;;;;;4.43;1.40;;;1.40;99.90;;;;;;5030628;28;20033;-68
2023/04/02 04:36:01;;;;;;;8.57;1.55;;;1.40;99.90;;;;;;5030106;28;20061;-71
2023/04/02 04:38:34;;;;;;;6.35;1.27;;;1.40;99.90;;;;;;5031462;28;20030;-70
2023/04/02 04:41:16;;;;;;;5.40;1.42;;;1.40;99.90;;;;;;5031524;28;20030;-69
2023/04/02 04:43:55;;;;;;;5.72;1.58;;;1.40;99.90;;;;;;5031690;28;20030;-68
2023/04/02 04:46:28;;;;;;;4.38;1.70;;;1.40;99.90;;;;;;5032375;28;20033;-68
2023/04/02 04:49:21;;;;;;;4.22;1.70;;;1.40;99.90;;;;;;5032370;28;20027;-68
2023/04/02 04:52:05;;;;;;;7.80;1.55;;;1.40;99.90;;;;;;5032337;28;20036;-66
2023/04/02 04:54:30;;;;;;;4.00;1.50;;;1.40;99.90;;;;;;5030727;28;20029;-67
2023/04/02 04:57:02;;;;;;;8.63;1.88;;;1.40;99.90;;;;;;5031682;28;20026;-70
2023/04/02 04:59:54;;;;;;;7.53;1.80;;;1.40;99.90;;;;;;5032221;28;20064;-68
2023/04/02 05:02:26;;;;;;;6.82;1.63;;;1.40;99.90;;;;;;5031925;28;20081;-67
2023/04/02 05:04:52;;;;;;;6.90;1.48;;;1.40;99.90;;;;;;5031737;28;20038;-67
2023/04/02 05:07:20;;;;;;;11.65;1.88;;;1.40;99.90;;;;;;5031333;28;20045;-67
2023/04/02 05:10:07;;;;;;;11.10;1.90;;;1.40;99.90;;;;;;5031608;28;20029;-69
2023/04/02 05:12:47;;;;;;;6.25;1.73;;;1.40;99.90;;;;;;5032030;28;20040;-68
2023/04/02 05:15:30;;;;;;;6.82;1.77;;;1.40;99.90;;;;;;5034457;28;20030;-66
2023/04/02 05:18:05;;;;;;;6.17;1.73;;;1.40;99.90;;;;;;5035442;28;20117;-69
2023/04/02 05:20:36;;;;;;;9.40;1.55;;;1.40;99.90;;;;;;5034397;28;20280;-68
2023/04/02 05:23:16;;;;;;;6.28;1.50;;;1.40;99.90;;;;;;5034993;28;20096;-68
2023/04/02 05:26:00;;;;;;;3.72;1.23;;;1.50;99.90;;;;;;5034682;28;20124;-68
2023/04/02 05:28:33;;;;;;;;;;;1.40;99.90;;;;;;5035515;28;20033;-67
2023/04/02 05:31:05;;;;;;;5.82;1.45;;;1.50;99.90;;;;;;5035306;28;20329;-68
2023/04/02 05:33:34;;;;;;;9.23;1.85;;;1.40;99.90;;;;;;5034697;28;20076;-69
2023/04/02 05:36:07;;;;;;;7.22;1.48;;;1.40;99.90;;;;;;5035041;28;20017;-70
2023/04/02 05:38:36;;;;;;;8.35;1.52;;;1.40;99.90;;;;;;5033561;28;20049;-67
2023/04/02 05:41:13;;;;;;;9.18;1.50;;;1.50;99.90;;;;;;5035026;28;20056;-67
2023/04/02 05:43:46;;;;;;;5.68;1.60;;;1.50;99.90;;;;;;5034757;28;20026;-66
2023/04/02 05:46:24;;;;;;;12.82;2.17;;;1.50;99.90;;;;;;5035036;28;20037;-68
2023/04/02 05:48:57;;;;;;;13.48;2.35;;;1.50;99.90;;;;;;5034773;28;20459;-68
2023/04/02 05:51:44;;;;;;;7.40;2.00;;;1.60;99.90;;;;;;5033591;28;20034;-67
2023/04/02 05:54:26;;;;;;;6.82;1.88;;;1.60;99.90;;;;;;5034186;28;20273;-68
2023/04/02 05:56:59;;;;;;;7.60;1.60;;;1.60;99.90;;;;;;5034982;28;20025;-67
2023/04/02 05:59:42;;;;;;;7.83;1.83;;;1.60;99.90;;;;;;5034656;28;20033;-66
2023/04/02 06:02:32;;;;;;;5.75;1.50;;;1.60;99.90;;;;;;5034794;28;20075;-68
2023/04/02 06:05:00;;;;;;;7.57;1.45;;;1.70;99.90;;;;;;5034088;28;20402;-69
2023/04/02 06:07:51;;;;;;;13.63;2.20;;;1.70;99.90;;;;;;5034535;28;20021;-68
2023/04/02 06:10:25;;;;;;;10.50;1.75;;;1.80;99.90;;;;;;5034239;28;20033;-67
2023/04/02 06:12:53;;;;;;;;;;;1.80;99.90;;;;;;5034240;28;20045;-68
2023/04/02 06:15:22;;;;;;;6.50;1.40;;;1.90;99.90;;;;;;5034239;28;19909;-67
2023/04/02 06:17:57;;;;;;;10.73;1.65;;;2.00;99.90;;;;;;5033964;28;20053;-67
2023/04/02 06:20:22;;;;;;;4.25;1.60;;;2.10;99.90;;;;;;5034522;28;20084;-69
2023/04/02 06:23:02;;;;;;;8.07;1.60;;;2.20;99.90;;;;;;5034214;28;20022;-69
2023/04/02 06:25:32;;;;;;;4.32;1.65;;;2.30;99.90;;;;;;5033388;28;20041;-68
2023/04/02 06:28:03;;;;;;;7.40;1.70;;;2.40;99.90;;;;;;5033667;28;20017;-67
2023/04/02 06:30:34;;;;;;;7.78;1.80;;;2.50;99.90;;;;;;5034128;28;20036;-68
2023/04/02 06:32:59;;;;;;;4.95;1.33;;;2.50;99.90;;;;;;5033762;28;20089;-69
2023/04/02 06:35:26;;;;;;;10.07;1.80;;;2.60;99.90;;;;;;5032588;28;20057;-68
2023/04/02 06:37:54;;;;;;;9.27;1.98;;;2.70;99.90;;;;;;5034001;28;20088;-68
2023/04/02 06:40:43;;;;;;;7.47;1.98;;;2.80;99.90;;;;;;5033560;28;20062;-69
2023/04/02 06:43:35;;;;;;;7.47;1.98;;;2.90;99.90;;;;;;5033612;28;20030;-68
2023/04/02 06:46:08;;;;;;;5.80;1.60;;;3.00;99.90;;;;;;5028274;28;20057;-68
2023/04/02 06:48:36;;;;;;;4.85;1.73;;;3.10;99.90;;;;;;5033478;28;20026;-68
2023/04/02 06:51:11;;;;;;;5.43;1.52;;;3.20;99.90;;;;;;5033287;28;20018;-68
2023/04/02 06:53:46;;;;;;;8.15;1.70;;;3.30;99.90;;;;;;5032633;28;20030;-68
2023/04/02 06:56:41;;;;;;;8.35;1.77;;;3.40;99.90;;;;;;5033605;28;20500;-67
2023/04/02 06:59:07;;;;;;;7.70;1.65;;;3.50;99.90;;;;;;5033559;28;20085;-70
2023/04/02 07:02:11;;;;;;;6.57;1.30;;;3.60;99.90;;;;;;5032221;28;20117;-68
2023/04/02 07:04:37;;;;;;;4.18;1.30;;;3.70;99.90;;;;;;5033373;28;20041;-68
2023/04/02 07:07:02;;;;;;;7.72;1.58;;;3.70;99.90;;;;;;5033460;28;20119;-67
2023/04/02 07:09:28;;;;;;;4.55;1.30;;;3.70;99.90;;;;;;5032885;28;20056;-68
2023/04/02 07:11:54;;;;;;;6.60;1.55;;;3.80;99.90;;;;;;5033373;28;20045;-69
2023/04/02 07:14:20;;;;;;;4.95;1.23;;;3.80;99.90;;;;;;5033480;28;20037;-68
2023/04/02 07:16:45;;;;;;;7.72;1.73;;;3.90;99.90;;;;;;5033283;28;20018;-67
2023/04/02 07:19:18;;;;;;;4.32;1.27;;;4.00;99.90;;;;;;5033239;28;20041;-68
2023/04/02 07:21:43;;;;;;;8.55;1.42;;;4.00;99.90;;;;;;5032101;28;20398;-68
2023/04/02 07:24:09;;;;;;;5.50;1.38;;;4.10;99.90;;;;;;5033058;28;20029;-70
2023/04/02 07:26:34;;;;;;;6.05;1.35;;;4.10;99.90;;;;;;5033062;28;20093;-67
2023/04/02 07:29:00;;;;;;;4.05;0.95;;;4.20;99.90;;;;;;5032734;28;20038;-69
2023/04/02 07:31:27;;;;;;;4.28;1.35;;;4.30;99.90;;;;;;5033077;28;20437;-69
2023/04/02 07:33:58;;;;;;;4.97;1.23;;;4.40;99.90;;;;;;5033128;28;20018;-69
2023/04/02 07:36:25;;;;;;;6.10;1.20;;;4.60;99.90;;;;;;5032390;28;20021;-69
2023/04/02 07:38:51;;;;;;;6.38;1.10;;;4.70;99.90;;;;;;5032257;28;20112;-69
2023/04/02 07:41:18;;;;;;;2.63;1.30;;;4.90;99.90;;;;;;5032955;28;20033;-68
2023/04/02 07:43:44;;;;;;;3.50;0.75;;;5.00;99.90;;;;;;5031952;28;20018;-68
2023/04/02 07:46:12;;;;;;;4.97;1.02;;;5.10;99.90;;;;;;5032573;28;21136;-68
2023/04/02 07:48:39;;;;;;;4.30;1.00;;;5.10;99.90;;;;;;5031711;28;20026;-68
2023/04/02 07:51:12;;;;;;;8.93;1.10;;;5.20;99.90;;;;;;5029636;28;20109;-69
2023/04/02 07:53:41;;;;;;;7.78;1.38;;;5.30;99.90;;;;;;5025933;28;20029;-69
2023/04/02 07:56:06;;;;;;;8.93;1.20;;;5.40;99.90;;;;;;5028468;28;20060;-69
2023/04/02 07:58:32;;;;;;;5.40;1.35;;;5.50;99.90;;;;;;5024994;28;20025;-68
2023/04/02 08:01:00;;;;;;;6.93;1.23;;;5.40;99.90;;;;;;5027539;28;20105;-70
2023/04/02 08:03:26;;;;;;;6.60;0.88;;;5.70;99.90;;;;;;5032566;28;20023;-70
2023/04/02 08:05:54;;;;;;;6.43;1.33;;;5.60;99.90;;;;;;5029552;28;20060;-68
2023/04/02 08:08:21;;;;;;;4.03;1.00;;;5.70;99.90;;;;;;5031288;28;20070;-70
2023/04/02 08:10:48;;;;;;;5.25;1.27;;;5.90;99.90;;;;;;5031796;28;20022;-70
2023/04/02 08:13:14;;;;;;;3.05;1.00;;;6.20;99.90;;;;;;5031124;28;20025;-69
2023/04/02 08:15:40;;;;;;;7.18;1.08;;;6.40;99.90;;;;;;5026340;28;20033;-68
2023/04/02 08:18:06;;;;;;;6.78;1.20;;;6.60;99.90;;;;;;5031239;28;20028;-70
2023/04/02 08:20:32;;;;;;;8.65;1.23;;;6.90;99.90;;;;;;5028189;28;20108;-69
2023/04/02 08:22:59;;;;;;;4.55;1.17;;;7.20;99.90;;;;;;5031278;28;20037;-69
2023/04/02 08:25:25;;;;;;;7.10;1.38;;;7.40;99.90;;;;;;5032009;28;20117;-73
2023/04/02 08:27:51;;;;;;;7.25;1.33;;;7.40;99.90;;;;;;5032364;28;20071;-70
2023/04/02 08:30:17;;;;;;;5.10;1.23;;;7.50;99.90;;;;;;5031932;28;20045;-70
2023/04/02 08:32:42;;;;;;;7.03;1.38;;;7.50;99.90;;;;;;5030311;28;20104;-69
2023/04/02 08:35:10;;;;;;;5.00;1.08;;;7.60;99.90;;;;;;5032069;28;20546;-69
2023/04/02 08:37:36;;;;;;;4.95;1.20;;;7.80;99.90;;;;;;5031225;28;20084;-69
2023/04/02 08:40:02;;;;;;;7.35;1.20;;;8.00;99.90;;;;;;5030456;28;20060;-70
2023/04/02 08:42:51;;;;;;;4.80;1.25;;;8.20;99.90;;;;;;5030322;28;20038;-69
2023/04/02 08:45:43;;;;;;;4.57;1.40;;;8.30;99.90;;;;;;5032126;28;20050;-70
2023/04/02 08:48:10;;;;;;;2.88;1.00;;;8.50;99.90;;;;;;5030158;28;20049;-66
2023/04/02 08:50:39;;;;;;;4.38;1.33;;;8.40;99.90;;;;;;5035013;28;20029;-67
2023/04/02 08:53:30;;;;;;;9.95;1.70;;;8.30;99.90;;;;;;5033916;28;20064;-67
2023/04/02 08:56:08;;;;;;;3.65;1.20;;;8.40;99.90;;;;;;5035221;28;20509;-68
2023/04/02 08:58:42;;;;;;;3.85;1.20;;;8.60;99.90;;;;;;5035711;28;20056;-68
2023/04/02 09:01:30;;;;;;;2.42;1.13;;;8.80;99.90;;;;;;5035650;28;20033;-69
2023/04/02 09:03:57;;;;;;;6.80;1.23;;;9.00;99.90;;;;;;5034966;28;20076;-69
2023/04/02 09:06:24;;;;;;;3.40;1.08;;;9.00;99.90;;;;;;5034247;28;20116;-68
2023/04/02 09:08:52;;;;;;;3.28;1.02;;;9.00;99.90;;;;;;5034156;28;20046;-68
2023/04/02 09:11:26;;;;;;;4.03;0.98;;;9.00;99.90;;;;;;5033556;28;20420;-68
2023/04/02 09:13:59;;;;;;;3.22;1.25;;;9.10;99.90;;;;;;5033316;28;20089;-67
2023/04/02 09:16:42;;;;;;;4.22;1.17;;;9.10;99.90;;;;;;5028567;28;20026;-69
2023/04/02 09:19:21;;;;;;;3.90;1.08;;;9.20;99.90;;;;;;5034976;28;20025;-69
2023/04/02 09:22:10;;;;;;;6.25;1.20;;;9.40;99.90;;;;;;5034663;28;20033;-68
2023/04/02 09:24:36;;;;;;;4.18;0.98;;;9.60;99.90;;;;;;5030987;28;20066;-69
2023/04/02 09:27:02;;;;;;;5.55;1.00;;;9.80;99.90;;;;;;5035291;28;20109;-67
2023/04/02 09:29:46;;;;;;;5.10;1.13;;;9.90;99.90;;;;;;5035035;28;20026;-70
2023/04/02 09:32:25;;;;;;;4.00;1.02;;;9.90;99.90;;;;;;5032768;28;20056;-68
2023/04/02 09:35:05;;;;;;;6.15;1.00;;;10.00;99.90;;;;;;5032848;28;20042;-71
2023/04/02 09:37:33;;;;;;;4.20;0.98;;;10.00;99.90;;;;;;5032373;28;20045;-68
2023/04/02 09:40:31;;;;;;;4.28;0.98;;;10.00;99.90;;;;;;5031833;28;20097;-70
2023/04/02 09:43:12;;;;;;;4.10;1.15;;;10.20;99.90;;;;;;5024691;28;20052;-70
2023/04/02 09:45:39;;;;;;;6.40;0.80;;;10.50;99.90;;;;;;5033631;28;20120;-69
2023/04/02 09:48:36;;;;;;;3.92;0.98;;;10.70;99.90;;;;;;5034983;28;20029;-69
2023/04/02 09:51:23;;;;;;;2.80;0.82;;;10.80;99.90;;;;;;5034698;28;20121;-69
2023/04/02 09:53:53;;;;;;;3.95;0.93;;;10.90;99.90;;;;;;5035151;28;20037;-69
2023/04/02 09:56:24;;;;;;;6.20;0.95;;;10.80;99.90;;;;;;5032266;28;20041;-71
2023/04/02 09:59:20;;;;;;;3.97;0.90;;;10.90;99.90;;;;;;5032547;28;21401;-68
2023/04/02 10:01:55;;;;;;;3.40;0.70;;;11.10;99.90;;;;;;5032874;28;20085;-69
2023/04/02 10:04:43;;;;;;;3.33;0.93;;;11.20;99.90;;;;;;5034574;28;20061;-68
2023/04/02 10:07:51;;;;;;;2.33;0.95;;;11.20;99.90;;;;;;5032038;28;20052;-70
2023/04/02 10:10:26;;;;;;;3.45;0.80;;;11.20;99.90;;;;;;5032874;28;20410;-68
2023/04/02 10:13:01;;;;;;;2.85;1.00;;;11.30;99.90;;;;;;5033471;28;20026;-71
2023/04/02 10:15:39;;;;;;;2.58;0.73;;;11.40;99.90;;;;;;5033794;28;20030;-69
2023/04/02 10:18:13;;;;;;;5.57;1.00;;;11.50;99.90;;;;;;5034620;28;20080;-68
2023/04/02 10:20:40;;;;;;;3.50;0.73;;;11.90;99.90;;;;;;5031895;28;20030;-69
2023/04/02 10:23:10;;;;;;;4.45;0.88;;;12.30;99.90;;;;;;5031600;28;20033;-71
2023/04/02 10:25:42;;;;;;;4.38;0.98;;;12.50;99.90;;;;;;5031363;28;20033;-69
2023/04/02 10:28:30;;;;;;;3.00;0.80;;;12.80;99.90;;;;;;5026745;28;20058;-68
2023/04/02 10:31:16;;;;;;;4.65;0.95;;;13.00;99.90;;;;;;5031882;28;20076;-72
2023/04/02 10:33:48;;;;;;;4.70;0.80;;;12.90;99.90;;;;;;5033988;28;20080;-68
2023/04/02 10:36:43;;;;;;;3.30;0.73;;;12.30;99.90;;;;;;5033391;28;20026;-69
2023/04/02 10:39:18;;;;;;;2.97;1.00;;;11.90;99.90;;;;;;5033388;28;20033;-70
2023/04/02 10:41:58;;;;;;;4.18;1.20;;;11.50;99.90;;;;;;5034067;28;20100;-69
2023/04/02 10:44:41;;;;;;;4.05;1.10;;;11.20;99.90;;;;;;5032975;28;20041;-69
2023/04/02 10:47:25;;;;;;;5.18;1.17;;;11.00;99.90;;;;;;5033597;28;20033;-68
2023/04/02 10:50:08;;;;;;;5.30;0.77;;;10.80;99.90;;;;;;5034047;28;20025;-69
2023/04/02 10:52:55;;;;;;;4.45;1.15;;;10.70;99.90;;;;;;5031196;28;20033;-69
2023/04/02 10:55:24;;;;;;;4.82;0.85;;;10.80;99.90;;;;;;5032848;28;20029;-69
2023/04/02 10:57:53;;;;;;;3.33;0.98;;;11.00;99.90;;;;;;5031503;28;20018;-69
2023/04/02 11:00:27;;;;;;;8.73;3.60;;;11.10;99.90;;;;;;5031596;28;20022;-69
2023/04/02 11:03:01;;;;;;;;;;;11.40;99.90;;;;;;5031695;28;20112;-70
2023/04/02 11:05:47;;;;;;;3.35;0.70;;;11.40;99.90;;;;;;5033514;28;19920;-70
2023/04/02 11:08:21;;;;;;;3.85;0.95;;;11.60;99.90;;;;;;5032418;28;20045;-70
2023/04/02 11:10:59;;;;;;;2.88;1.80;;;12.00;99.90;;;;;;5029602;28;20038;-70
2023/04/02 11:13:30;;;;;;;2.78;0.90;;;12.10;99.90;;;;;;5031127;28;20038;-70
2023/04/02 11:15:56;;;;;;;2.90;0.68;;;12.00;99.90;;;;;;5029607;28;20487;-69
2023/04/02 11:18:37;;;;;;;3.75;0.75;;;11.80;99.90;;;;;;5028524;28;20029;-70
2023/04/02 11:21:24;;;;;;;3.88;1.00;;;11.90;99.90;;;;;;5031533;28;20036;-70
2023/04/02 11:24:01;;;;;;;2.58;0.75;;;12.20;99.90;;;;;;5029446;28;20430;-70
2023/04/02 11:26:40;;;;;;;3.28;0.88;;;12.60;99.90;;;;;;5030761;28;20050;-71
2023/04/02 11:29:26;;;;;;;3.15;0.70;;;12.80;99.90;;;;;;5031162;28;20038;-68
2023/04/02 11:32:22;;;;;;;2.58;0.98;;;12.60;99.90;;;;;;5031525;28;20132;-70
2023/04/02 11:34:58;;;;;;;4.85;0.90;;;12.90;99.90;;;;;;5025638;28;20429;-69
2023/04/02 11:37:44;;;;;;;3.38;0.75;;;13.20;99.90;;;;;;5032780;28;20390;-71
2023/04/02 11:40:09;;;;;;;3.33;0.60;;;13.20;99.90;;;;;;5029111;28;20037;-70
2023/04/02 11:42:37;;;;;;;3.90;0.75;;;13.40;99.90;;;;;;5026652;28;20025;-69
2023/04/02 11:45:21;;;;;;;3.13;0.60;;;13.70;99.90;;;;;;5030605;28;20044;-70
2023/04/02 11:47:59;;;;;;;;;;;14.00;99.90;;;;;;5031095;28;20037;-70
2023/04/02 11:50:45;;;;;;;3.90;0.65;;;14.20;99.90;;;;;;5031312;28;19915;-72
2023/04/02 11:53:11;;;;;;;4.93;1.17;;;14.70;99.90;;;;;;5031090;28;20091;-69
2023/04/02 11:55:41;;;;;;;4.50;0.80;;;15.00;99.90;;;;;;5032644;28;20030;-71
2023/04/02 11:58:40;;;;;;;8.20;0.93;;;15.20;99.90;;;;;;5032433;28;20490;-69
2023/04/02 12:01:30;;;;;;;4.22;1.02;;;15.30;99.90;;;;;;5032113;28;20033;-69
2023/04/02 12:04:05;;;;;;;3.42;0.80;;;15.10;99.90;;;;;;5032325;28;20053;-72
2023/04/02 12:06:46;;;;;;;4.25;0.80;;;15.20;99.90;;;;;;5031443;28;20447;-70
2023/04/02 12:09:18;;;;;;;2.22;0.70;;;15.30;99.90;;;;;;5030723;28;20406;-69
2023/04/02 12:11:46;;;;;;;2.63;0.77;;;15.30;99.90;;;;;;5031560;28;20371;-68
2023/04/02 12:15:02;;;;;;;2.10;0.95;;;15.10;99.90;;;;;;5031107;28;20062;-70
2023/04/02 12:17:34;;;;;;;5.32;0.70;;;15.10;99.90;;;;;;4998236;28;21391;-69
2023/04/02 12:20:22;;;;;;;3.38;0.52;;;15.20;99.90;;;;;;5020402;28;20030;-71
2023/04/02 12:22:55;;;;;;;3.05;0.80;;;15.60;99.90;;;;;;5029970;28;20038;-70
2023/04/02 12:25:38;;;;;;;2.88;0.70;;;15.70;99.90;;;;;;5030305;28;20046;-69
2023/04/02 12:28:06;;;;;;;2.60;1.05;;;15.70;99.90;;;;;;5014765;28;20037;-69
2023/04/02 12:30:32;;;;;;;5.13;1.20;;;15.70;99.90;;;;;;5028891;28;20030;-70
2023/04/02 12:33:16;;;;;;;2.45;0.70;;;15.60;99.90;;;;;;5032087;28;20030;-69
2023/04/02 12:35:43;;;;;;;1.10;0.47;;;15.70;99.90;;;;;;5032115;28;20025;-71
2023/04/02 12:38:32;;;;;;;4.90;1.00;;;15.60;99.90;;;;;;5031329;28;20026;-70
2023/04/02 12:41:17;;;;;;;2.28;0.70;;;15.80;99.90;;;;;;5031332;28;20072;-71
2023/04/02 12:43:43;;;;;;;4.00;0.65;;;15.80;99.90;;;;;;5024931;28;20033;-68
2023/04/02 12:46:11;;;;;;;2.58;0.75;;;16.10;99.90;;;;;;5025919;28;20498;-71
2023/04/02 12:48:38;;;;;;;1.92;0.80;;;16.30;99.90;;;;;;5031055;28;20113;-68
2023/04/02 12:51:04;;;;;;;2.85;0.80;;;16.60;99.90;;;;;;5030543;28;20029;-69
2023/04/02 12:53:36;;;;;;;4.78;0.75;;;16.60;99.90;;;;;;5031989;28;20030;-70
2023/04/02 12:56:03;;;;;;;3.20;0.82;;;16.70;99.90;;;;;;5031444;28;20026;-70
2023/04/02 12:58:40;;;;;;;3.80;0.82;;;17.00;99.90;;;;;;5032015;28;20026;-71
2023/04/02 13:01:30;;;;;;;3.17;1.00;;;17.00;99.90;;;;;;5031723;28;20030;-69
2023/04/02 13:04:03;;;;;;;5.60;1.00;;;17.00;99.90;;;;;;5030048;28;20389;-71
2023/04/02 13:06:29;;;;;;;2.33;0.70;;;17.10;99.90;;;;;;5031388;28;20038;-70
2023/04/02 13:08:56;;;;;;;2.63;1.05;;;17.00;99.90;;;;;;5030450;28;20276;-69
2023/04/02 13:11:32;;;;;;;1.95;0.80;;;17.00;99.90;;;;;;5032072;28;20606;-71
2023/04/02 13:14:01;;;;;;;2.80;0.73;;;17.00;99.90;;;;;;5029127;28;20073;-72
2023/04/02 13:16:33;;;;;;;4.88;1.00;;;16.90;99.90;;;;;;5030658;28;20026;-71
2023/04/02 13:19:27;;;;;;;3.85;1.00;;;16.90;99.90;;;;;;5029946;28;20029;-71
2023/04/02 13:21:54;;;;;;;3.60;0.60;;;17.00;99.90;;;;;;5030548;28;20025;-70
2023/04/02 13:24:28;;;;;;;3.08;0.93;;;16.90;99.90;;;;;;5030632;28;20076;-71
2023/04/02 13:26:59;;;;;;;3.22;0.95;;;16.90;99.90;;;;;;5023875;28;20040;-72
2023/04/02 13:29:35;;;;;;;3.70;0.95;;;17.20;99.90;;;;;;5025957;28;20077;-71
2023/04/02 13:32:03;;;;;;;4.13;0.82;;;17.50;99.90;;;;;;5029734;28;20037;-70
2023/04/02 13:34:29;;;;;;;1.85;0.68;;;17.70;99.90;;;;;;5030603;28;20065;-72